Time,TemperatureF,DewpointF,PressureIn,WindDirection,WindDirectionDegrees,WindSpeedMPH,WindSpeedGustMPH,Humidity,HourlyPrecipIn,Conditions,Clouds,dailyrainin,SoftwareType,DateUTC
2013-06-18 00:05:00,77.2,38.4,29.90,South,180,1.1,1.1,25,0.00,,,0.00,WUHU216HW,2013-06-18 07:05:00,
2013-06-18 00:15:00,76.9,37.0,29.90,SSE,158,0.0,1.8,24,0.00,,,0.00,WUHU216HW,2013-06-18 07:15:00,
2013-06-18 00:25:00,76.7,37.9,29.89,SW,225,0.2,2.5,25,0.00,,,0.00,WUHU216HW,2013-06-18 07:25:00,
2013-06-18 00:35:00,76.3,37.5,29.89,WSW,248,0.4,1.6,25,0.00,,,0.00,WUHU216HW,2013-06-18 07:35:00,
2013-06-18 00:45:00,76.0,36.2,29.89,SE,135,1.1,1.3,24,0.00,,,0.00,WUHU216HW,2013-06-18 07:45:00,
2013-06-18 00:55:00,75.6,35.9,29.90,SE,135,0.0,1.8,24,0.00,,,0.00,WUHU216HW,2013-06-18 07:55:00,
2013-06-18 01:05:00,75.2,36.6,29.89,SSE,158,0.4,1.1,25,0.00,,,0.00,WUHU216HW,2013-06-18 08:05:00,
2013-06-18 01:15:00,74.9,36.4,29.89,SSE,158,0.4,1.1,25,0.00,,,0.00,WUHU216HW,2013-06-18 08:15:00,
2013-06-18 01:25:00,74.7,36.2,29.89,SE,135,1.1,1.6,25,0.00,,,0.00,WUHU216HW,2013-06-18 08:25:00,
2013-06-18 01:35:00,74.3,36.9,29.90,NNE,23,1.1,1.1,26,0.00,,,0.00,WUHU216HW,2013-06-18 08:35:00,
2013-06-18 01:45:00,74.0,35.6,29.89,ESE,113,0.4,1.1,25,0.00,,,0.00,WUHU216HW,2013-06-18 08:45:00,
2013-06-18 01:55:00,73.6,37.3,29.90,East,90,0.9,0.9,27,0.00,,,0.00,WUHU216HW,2013-06-18 08:55:00,
2013-06-18 02:05:00,73.3,38.0,29.89,SSE,158,0.2,0.9,28,0.00,,,0.00,WUHU216HW,2013-06-18 09:05:00,
2013-06-18 02:16:00,72.9,37.7,29.90,SE,135,0.4,0.4,28,0.00,,,0.00,WUHU216HW,2013-06-18 09:16:00,
2013-06-18 02:26:00,72.5,38.4,29.90,SE,135,0.0,0.2,29,0.00,,,0.00,WUHU216HW,2013-06-18 09:26:00,
2013-06-18 02:36:00,72.2,38.1,29.90,SE,135,0.0,0.7,29,0.00,,,0.00,WUHU216HW,2013-06-18 09:36:00,
2013-06-18 02:46:00,71.8,38.9,29.90,SE,135,0.0,0.7,30,0.00,,,0.00,WUHU216HW,2013-06-18 09:46:00,
2013-06-18 02:56:00,71.5,38.5,29.90,SE,135,0.0,0.0,30,0.00,,,0.00,WUHU216HW,2013-06-18 09:56:00,
2013-06-18 03:06:00,70.9,38.8,29.90,SSW,203,0.0,0.0,31,0.00,,,0.00,WUHU216HW,2013-06-18 10:06:00,
2013-06-18 03:16:00,70.6,39.3,29.90,SSW,203,0.0,0.0,32,0.00,,,0.00,WUHU216HW,2013-06-18 10:16:00,
2013-06-18 03:26:00,70.2,39.6,29.90,SSW,203,0.0,0.0,33,0.00,,,0.00,WUHU216HW,2013-06-18 10:26:00,
2013-06-18 03:36:00,69.8,40.1,29.90,South,180,0.4,0.4,34,0.00,,,0.00,WUHU216HW,2013-06-18 10:36:00,
2013-06-18 03:46:00,69.3,38.8,29.90,SSE,158,0.9,1.6,33,0.00,,,0.00,WUHU216HW,2013-06-18 10:46:00,
2013-06-18 03:56:00,69.1,38.6,29.90,SE,135,0.7,1.1,33,0.00,,,0.00,WUHU216HW,2013-06-18 10:56:00,
2013-06-18 04:06:00,69.1,38.6,29.90,SSE,158,0.0,0.4,33,0.00,,,0.00,WUHU216HW,2013-06-18 11:06:00,
2013-06-18 04:16:00,68.8,38.4,29.90,SSE,158,0.0,0.2,33,0.00,,,0.00,WUHU216HW,2013-06-18 11:16:00,
2013-06-18 04:26:00,68.6,38.9,29.90,SSW,203,0.0,0.0,34,0.00,,,0.00,WUHU216HW,2013-06-18 11:26:00,
2013-06-18 04:36:00,68.0,39.2,29.90,SSW,203,0.0,0.0,35,0.00,,,0.00,WUHU216HW,2013-06-18 11:36:00,
2013-06-18 04:46:00,67.7,41.0,29.91,SSW,203,0.0,0.0,38,0.00,,,0.00,WUHU216HW,2013-06-18 11:46:00,
2013-06-18 04:56:00,67.3,40.8,29.91,SSE,158,0.7,0.7,38,0.00,,,0.00,WUHU216HW,2013-06-18 11:56:00,
2013-06-18 05:06:00,66.8,39.5,29.91,SSE,158,0.4,0.9,37,0.00,,,0.00,WUHU216HW,2013-06-18 12:06:00,
2013-06-18 05:16:00,66.6,39.3,29.91,SSE,158,0.0,0.4,37,0.00,,,0.00,WUHU216HW,2013-06-18 12:16:00,
2013-06-18 05:27:00,66.6,38.6,29.92,South,180,0.2,0.4,36,0.00,,,0.00,WUHU216HW,2013-06-18 12:27:00,
2013-06-18 05:37:00,66.4,40.0,29.91,SSW,203,0.0,0.2,38,0.00,,,0.00,WUHU216HW,2013-06-18 12:37:00,
2013-06-18 05:47:00,66.6,40.9,29.91,SSE,158,0.2,0.2,39,0.00,,,0.00,WUHU216HW,2013-06-18 12:47:00,
2013-06-18 05:57:00,66.8,41.0,29.92,SE,135,0.0,0.7,39,0.00,,,0.00,WUHU216HW,2013-06-18 12:57:00,
2013-06-18 06:07:00,68.0,42.8,29.92,South,180,0.0,0.7,40,0.00,,,0.00,WUHU216HW,2013-06-18 13:07:00,
2013-06-18 06:17:00,71.5,45.2,29.92,South,180,0.0,0.0,39,0.00,,,0.00,WUHU216HW,2013-06-18 13:17:00,
2013-06-18 06:27:00,72.0,42.7,29.92,SE,135,0.0,0.0,35,0.00,,,0.00,WUHU216HW,2013-06-18 13:27:00,
2013-06-18 06:37:00,72.4,42.3,29.93,ESE,113,0.0,0.4,34,0.00,,,0.00,WUHU216HW,2013-06-18 13:37:00,
2013-06-18 06:47:00,73.1,44.4,29.93,SW,225,0.4,0.7,36,0.00,,,0.00,WUHU216HW,2013-06-18 13:47:00,
2013-06-18 06:57:00,74.2,46.1,29.93,ESE,113,0.4,0.4,37,0.00,,,0.00,WUHU216HW,2013-06-18 13:57:00,
2013-06-18 07:07:00,75.4,44.9,29.92,NNW,338,0.0,1.3,34,0.00,,,0.00,WUHU216HW,2013-06-18 14:07:00,
2013-06-18 07:17:00,76.3,45.7,29.93,NW,315,0.0,1.3,34,0.00,,,0.00,WUHU216HW,2013-06-18 14:17:00,
2013-06-18 07:27:00,77.4,45.2,29.93,West,270,0.0,0.4,32,0.00,,,0.00,WUHU216HW,2013-06-18 14:27:00,
2013-06-18 07:37:00,78.5,44.6,29.93,WSW,248,0.9,0.9,30,0.00,,,0.00,WUHU216HW,2013-06-18 14:37:00,
2013-06-18 07:47:00,79.6,44.5,29.93,NW,315,1.1,2.0,29,0.00,,,0.00,WUHU216HW,2013-06-18 14:47:00,
2013-06-18 07:57:00,80.6,44.4,29.93,West,270,0.4,1.1,28,0.00,,,0.00,WUHU216HW,2013-06-18 14:57:00,
2013-06-18 08:07:00,81.9,43.3,29.93,NW,315,1.1,1.1,26,0.00,,,0.00,WUHU216HW,2013-06-18 15:07:00,
2013-06-18 08:17:00,83.2,43.3,29.93,West,270,1.6,1.6,25,0.00,,,0.00,WUHU216HW,2013-06-18 15:17:00,
2013-06-18 08:27:00,84.4,42.2,29.93,WSW,248,0.4,2.5,23,0.00,,,0.00,WUHU216HW,2013-06-18 15:27:00,
2013-06-18 08:38:00,86.0,42.5,29.93,West,270,0.9,1.8,22,0.00,,,0.00,WUHU216HW,2013-06-18 15:38:00,
2013-06-18 08:48:00,87.3,42.5,29.93,West,270,2.0,2.0,21,0.00,,,0.00,WUHU216HW,2013-06-18 15:48:00,
2013-06-18 08:58:00,88.4,40.7,29.93,WNW,293,1.8,2.5,19,0.00,,,0.00,WUHU216HW,2013-06-18 15:58:00,
2013-06-18 09:08:00,89.5,39.8,29.93,NW,315,1.3,2.5,18,0.00,,,0.00,WUHU216HW,2013-06-18 16:08:00,
2013-06-18 09:18:00,90.5,37.1,29.93,NW,315,0.4,2.5,16,0.00,,,0.00,WUHU216HW,2013-06-18 16:18:00,
2013-06-18 09:28:00,91.1,35.8,29.92,ENE,68,0.9,1.8,15,0.00,,,0.00,WUHU216HW,2013-06-18 16:28:00,
2013-06-18 09:38:00,91.8,36.4,29.92,WNW,293,2.0,2.0,15,0.00,,,0.00,WUHU216HW,2013-06-18 16:38:00,
2013-06-18 09:48:00,92.9,33.7,29.92,East,90,1.6,2.7,13,0.00,,,0.00,WUHU216HW,2013-06-18 16:48:00,
2013-06-18 09:58:00,93.6,34.2,29.92,WNW,293,2.0,3.4,13,0.00,,,0.00,WUHU216HW,2013-06-18 16:58:00,
2013-06-18 10:08:00,94.3,33.0,29.92,North,0,1.1,4.0,12,0.00,,,0.00,WUHU216HW,2013-06-18 17:08:00,
2013-06-18 10:18:00,94.9,33.5,29.91,NNE,23,1.8,3.6,12,0.00,,,0.00,WUHU216HW,2013-06-18 17:18:00,
2013-06-18 10:28:00,95.8,34.1,29.91,WNW,293,1.1,3.4,12,0.00,,,0.00,WUHU216HW,2013-06-18 17:28:00,
2013-06-18 10:38:00,96.7,34.8,29.91,NW,315,2.7,4.0,12,0.00,,,0.00,WUHU216HW,2013-06-18 17:38:00,
2013-06-18 10:48:00,97.6,33.7,29.91,WNW,293,2.5,3.8,11,0.00,,,0.00,WUHU216HW,2013-06-18 17:48:00,
2013-06-18 10:58:00,97.6,33.7,29.91,WSW,248,0.4,4.0,11,0.00,,,0.00,WUHU216HW,2013-06-18 17:58:00,
2013-06-18 11:08:00,98.3,34.3,29.91,WNW,293,2.5,4.7,11,0.00,,,0.00,WUHU216HW,2013-06-18 18:08:00,
2013-06-18 11:18:00,98.5,32.6,29.90,North,0,4.0,5.4,9,0.00,,,0.00,WUHU216HW,2013-06-18 18:18:00,
2013-06-18 11:28:00,98.6,32.8,29.90,NW,315,3.8,6.9,10,0.00,,,0.00,WUHU216HW,2013-06-18 18:28:00,
2013-06-18 11:38:00,99.4,33.3,29.90,North,0,4.3,7.2,9,0.00,,,0.00,WUHU216HW,2013-06-18 18:38:00,
2013-06-18 11:48:00,100.1,33.9,29.90,West,270,4.5,4.5,10,0.00,,,0.00,WUHU216HW,2013-06-18 18:48:00,
2013-06-18 11:58:00,101.0,34.6,29.89,West,270,3.6,9.8,8,0.00,,,0.00,WUHU216HW,2013-06-18 18:58:00,
2013-06-18 12:09:00,101.7,35.1,29.89,NNW,338,10.1,10.1,8,0.00,,,0.00,WUHU216HW,2013-06-18 19:09:00,
2013-06-18 12:19:00,101.9,35.2,29.89,ESE,113,3.8,4.5,8,0.00,,,0.00,WUHU216HW,2013-06-18 19:19:00,
2013-06-18 12:29:00,102.1,35.4,29.88,SSE,158,0.9,5.6,8,0.00,,,0.00,WUHU216HW,2013-06-18 19:29:00,
2013-06-18 12:39:00,102.1,35.4,29.88,West,270,1.1,4.7,7,0.00,,,0.00,WUHU216HW,2013-06-18 19:39:00,
2013-06-18 12:49:00,102.4,35.7,29.87,WNW,293,9.8,9.8,6,0.00,,,0.00,WUHU216HW,2013-06-18 19:49:00,
2013-06-18 12:59:00,103.7,36.6,29.87,WNW,293,2.2,8.5,5,0.00,,,0.00,WUHU216HW,2013-06-18 19:59:00,
2013-06-18 13:09:00,104.8,37.5,29.87,WNW,293,5.6,9.8,3,0.00,,,0.00,WUHU216HW,2013-06-18 20:09:00,
2013-06-18 13:19:00,105.1,37.6,29.87,West,270,4.9,10.1,3,0.00,,,0.00,WUHU216HW,2013-06-18 20:19:00,
2013-06-18 13:29:00,105.7,38.1,29.87,SW,225,4.3,11.4,3,0.00,,,0.00,WUHU216HW,2013-06-18 20:29:00,
2013-06-18 13:39:00,105.3,37.8,29.86,WNW,293,3.1,8.5,3,0.00,,,0.00,WUHU216HW,2013-06-18 20:39:00,
2013-06-18 13:49:00,105.7,38.1,29.86,West,270,4.9,7.6,3,0.00,,,0.00,WUHU216HW,2013-06-18 20:49:00,
2013-06-18 13:59:00,105.5,37.9,29.85,ENE,68,1.3,6.0,5,0.00,,,0.00,WUHU216HW,2013-06-18 20:59:00,
2013-06-18 14:09:00,105.8,38.2,29.85,West,270,8.3,8.3,3,0.00,,,0.00,WUHU216HW,2013-06-18 21:09:00,
2013-06-18 14:19:00,106.6,38.7,29.84,WNW,293,2.9,6.5,3,0.00,,,0.00,WUHU216HW,2013-06-18 21:19:00,
2013-06-18 14:29:00,106.9,39.1,29.85,West,270,4.3,8.7,3,0.00,,,0.00,WUHU216HW,2013-06-18 21:29:00,
2013-06-18 14:39:00,106.6,38.7,29.84,West,270,3.4,7.8,3,0.00,,,0.00,WUHU216HW,2013-06-18 21:39:00,
2013-06-18 14:49:00,106.6,38.7,29.84,WNW,293,6.7,9.8,2,0.00,,,0.00,WUHU216HW,2013-06-18 21:49:00,
2013-06-18 14:59:00,106.7,38.9,29.84,North,0,3.8,6.9,2,0.00,,,0.00,WUHU216HW,2013-06-18 21:59:00,
2013-06-18 15:09:00,106.4,38.6,29.83,WNW,293,4.0,12.1,1,0.00,,,0.00,WUHU216HW,2013-06-18 22:09:00,
2013-06-18 15:19:00,106.4,38.6,29.83,WNW,293,4.0,8.1,1,0.00,,,0.00,WUHU216HW,2013-06-18 22:19:00,
2013-06-18 15:30:00,106.4,38.6,29.83,NW,315,5.8,6.9,1,0.00,,,0.00,WUHU216HW,2013-06-18 22:30:00,
2013-06-18 15:40:00,106.2,38.4,29.82,West,270,7.2,7.2,1,0.00,,,0.00,WUHU216HW,2013-06-18 22:40:00,
2013-06-18 15:50:00,106.2,38.4,29.82,WSW,248,12.8,12.8,1,0.00,,,0.00,WUHU216HW,2013-06-18 22:50:00,
2013-06-18 16:00:00,106.2,38.4,29.82,West,270,6.3,8.7,1,0.00,,,0.00,WUHU216HW,2013-06-18 23:00:00,
2013-06-18 16:10:00,105.8,38.2,29.82,NNW,338,4.9,8.9,1,0.00,,,0.00,WUHU216HW,2013-06-18 23:10:00,
2013-06-18 16:20:00,105.7,38.1,29.82,NW,315,8.5,9.2,1,0.00,,,0.00,WUHU216HW,2013-06-18 23:20:00,
2013-06-18 16:30:00,105.1,37.6,29.81,NW,315,3.4,8.5,1,0.00,,,0.00,WUHU216HW,2013-06-18 23:30:00,
2013-06-18 16:40:00,104.9,37.5,29.80,WNW,293,4.5,6.7,1,0.00,,,0.00,WUHU216HW,2013-06-18 23:40:00,
2013-06-18 16:50:00,104.8,37.5,29.80,NNW,338,6.9,9.2,1,0.00,,,0.00,WUHU216HW,2013-06-18 23:50:00,
2013-06-18 17:00:00,104.4,37.2,29.80,WNW,293,4.3,7.8,1,0.00,,,0.00,WUHU216HW,2013-06-19 00:00:00,
2013-06-18 17:10:00,104.2,37.0,29.80,NW,315,5.4,5.8,1,0.00,,,0.00,WUHU216HW,2013-06-19 00:10:00,
2013-06-18 17:20:00,104.0,36.9,29.80,West,270,2.5,7.2,1,0.00,,,0.00,WUHU216HW,2013-06-19 00:20:00,
2013-06-18 17:30:00,103.7,36.6,29.80,West,270,3.4,7.6,1,0.00,,,0.00,WUHU216HW,2013-06-19 00:30:00,
2013-06-18 17:40:00,103.3,36.4,29.80,West,270,4.5,9.8,1,0.00,,,0.00,WUHU216HW,2013-06-19 00:40:00,
2013-06-18 17:50:00,103.0,36.0,29.80,WSW,248,3.6,5.8,1,0.00,,,0.00,WUHU216HW,2013-06-19 00:50:00,
2013-06-18 18:00:00,102.8,35.9,29.80,NNW,338,3.4,4.7,1,0.00,,,0.00,WUHU216HW,2013-06-19 01:00:00,
2013-06-18 18:11:00,102.2,35.5,29.80,WSW,248,1.3,6.0,1,0.00,,,0.00,WUHU216HW,2013-06-19 01:11:00,
2013-06-18 18:21:00,102.1,35.4,29.80,WNW,293,4.0,4.0,1,0.00,,,0.00,WUHU216HW,2013-06-19 01:21:00,
2013-06-18 18:31:00,101.3,34.8,29.80,West,270,2.2,6.7,1,0.00,,,0.00,WUHU216HW,2013-06-19 01:31:00,
2013-06-18 18:41:00,101.0,34.6,29.80,NW,315,4.3,4.7,1,0.00,,,0.00,WUHU216HW,2013-06-19 01:41:00,
2013-06-18 18:51:00,100.3,34.0,29.80,WNW,293,1.1,5.6,1,0.00,,,0.00,WUHU216HW,2013-06-19 01:51:00,
2013-06-18 19:01:00,99.4,33.3,29.80,NW,315,3.4,5.8,2,0.00,,,0.00,WUHU216HW,2013-06-19 02:01:00,
2013-06-18 19:11:00,98.3,32.5,29.80,West,270,0.9,3.8,2,0.00,,,0.00,WUHU216HW,2013-06-19 02:11:00,
2013-06-18 19:21:00,97.4,31.8,29.80,NNW,338,0.2,2.0,2,0.00,,,0.00,WUHU216HW,2013-06-19 02:21:00,
2013-06-18 19:31:00,96.1,30.8,29.80,West,270,0.4,1.1,3,0.00,,,0.00,WUHU216HW,2013-06-19 02:31:00,
2013-06-18 19:41:00,94.7,29.8,29.80,WNW,293,0.0,0.4,6,0.00,,,0.00,WUHU216HW,2013-06-19 02:41:00,
2013-06-18 19:51:00,93.2,28.6,29.80,WNW,293,0.0,0.0,10,0.00,,,0.00,WUHU216HW,2013-06-19 02:51:00,
2013-06-18 20:01:00,91.6,27.5,29.80,WNW,293,0.0,0.0,10,0.00,,,0.00,WUHU216HW,2013-06-19 03:01:00,
2013-06-18 20:11:00,89.8,26.1,29.80,NNW,338,0.0,0.4,8,0.00,,,0.00,WUHU216HW,2013-06-19 03:11:00,
2013-06-18 20:21:00,88.2,24.9,29.80,NNE,23,0.0,1.3,8,0.00,,,0.00,WUHU216HW,2013-06-19 03:21:00,
2013-06-18 20:31:00,87.1,24.1,29.80,NNW,338,0.0,0.0,10,0.00,,,0.00,WUHU216HW,2013-06-19 03:31:00,
2013-06-18 20:41:00,86.2,25.1,29.80,NNW,338,0.0,0.0,11,0.00,,,0.00,WUHU216HW,2013-06-19 03:41:00,
2013-06-18 20:51:00,85.0,24.0,29.81,NNW,338,0.0,0.0,11,0.00,,,0.00,WUHU216HW,2013-06-19 03:51:00,
2013-06-18 21:01:00,83.9,23.2,29.81,SE,135,0.4,0.4,11,0.00,,,0.00,WUHU216HW,2013-06-19 04:01:00,
2013-06-18 21:11:00,82.8,24.1,29.82,SE,135,0.4,0.9,12,0.00,,,0.00,WUHU216HW,2013-06-19 04:11:00,
2013-06-18 21:22:00,81.9,23.5,29.82,SE,135,0.0,0.9,12,0.00,,,0.00,WUHU216HW,2013-06-19 04:22:00,
2013-06-18 21:32:00,81.0,22.8,29.82,SE,135,1.1,1.1,12,0.00,,,0.00,WUHU216HW,2013-06-19 04:32:00,
2013-06-18 21:42:00,80.3,22.1,29.83,SE,135,1.1,1.8,12,0.00,,,0.00,WUHU216HW,2013-06-19 04:42:00,
2013-06-18 21:52:00,79.9,21.9,29.83,WNW,293,1.1,1.1,12,0.00,,,0.00,WUHU216HW,2013-06-19 04:52:00,
2013-06-18 22:02:00,79.4,21.4,29.83,SSE,158,1.3,2.7,12,0.00,,,0.00,WUHU216HW,2013-06-19 05:02:00,
2013-06-18 22:12:00,79.0,21.2,29.83,SSE,158,1.3,2.7,12,0.00,,,0.00,WUHU216HW,2013-06-19 05:12:00,
2013-06-18 22:22:00,78.5,20.7,29.84,SE,135,1.6,2.2,12,0.00,,,0.00,WUHU216HW,2013-06-19 05:22:00,
2013-06-18 22:32:00,78.1,20.4,29.83,SE,135,0.4,2.2,12,0.00,,,0.00,WUHU216HW,2013-06-19 05:32:00,
2013-06-18 22:42:00,77.8,21.9,29.83,SSE,158,0.4,0.9,13,0.00,,,0.00,WUHU216HW,2013-06-19 05:42:00,
2013-06-18 22:52:00,77.2,21.5,29.84,SSE,158,0.4,0.7,13,0.00,,,0.00,WUHU216HW,2013-06-19 05:52:00,
2013-06-18 23:02:00,76.7,24.4,29.84,SE,135,0.0,0.9,15,0.00,,,0.00,WUHU216HW,2013-06-19 06:02:00,
2013-06-18 23:12:00,76.0,25.5,29.84,SE,135,0.0,1.1,16,0.00,,,0.00,WUHU216HW,2013-06-19 06:12:00,
2013-06-18 23:22:00,75.2,28.2,29.84,SE,135,0.0,0.4,18,0.00,,,0.00,WUHU216HW,2013-06-19 06:22:00,
2013-06-18 23:32:00,74.3,25.8,29.84,SE,135,1.1,2.0,17,0.00,,,0.00,WUHU216HW,2013-06-19 06:32:00,
2013-06-18 23:42:00,74.2,25.8,29.84,SSE,158,0.4,1.3,17,0.00,,,0.00,WUHU216HW,2013-06-19 06:42:00,
2013-06-18 23:52:00,73.4,26.8,29.84,NE,45,0.2,1.8,18,0.00,,,0.00,WUHU216HW,2013-06-19 06:52:00,